sensor_id;sensor_type;location;lat;lon;timestamp;temperature;humidity
1994;DHT22;998;49.906;10.908;2022-12-18T00:01:16;-6.40;99.90
1994;DHT22;998;49.906;10.908;2022-12-18T00:03:45;-6.50;99.90
1994;DHT22;998;49.906;10.908;2022-12-18T00:06:12;-6.50;99.90
1994;DHT22;998;49.906;10.908;2022-12-18T00:08:40;-6.40;99.90
1994;DHT22;998;49.906;10.908;2022-12-18T00:11:10;-6.40;99.90
1994;DHT22;998;49.906;10.908;2022-12-18T00:13:38;-6.40;99.90
1994;DHT22;998;49.906;10.908;2022-12-18T00:16:09;-6.40;99.90
1994;DHT22;998;49.906;10.908;2022-12-18T00:18:37;-6.40;99.90
1994;DHT22;998;49.906;10.908;2022-12-18T00:21:06;-6.50;99.90
1994;DHT22;998;49.906;10.908;2022-12-18T00:23:34;-6.50;99.90
1994;DHT22;998;49.906;10.908;2022-12-18T00:26:03;-6.60;99.90
1994;DHT22;998;49.906;10.908;2022-12-18T00:28:30;-6.50;99.90
1994;DHT22;998;49.906;10.908;2022-12-18T00:31:01;-6.60;99.90
1994;DHT22;998;49.906;10.908;2022-12-18T00:33:30;-6.60;99.90
1994;DHT22;998;49.906;10.908;2022-12-18T00:36:00;-6.60;99.90
1994;DHT22;998;49.906;10.908;2022-12-18T00:38:28;-6.70;99.90
1994;DHT22;998;49.906;10.908;2022-12-18T00:40:56;-6.70;99.90
1994;DHT22;998;49.906;10.908;2022-12-18T00:43:23;-6.80;99.90
1994;DHT22;998;49.906;10.908;2022-12-18T00:45:49;-6.60;99.90
1994;DHT22;998;49.906;10.908;2022-12-18T00:48:17;-6.60;99.90
1994;DHT22;998;49.906;10.908;2022-12-18T00:50:47;-6.70;99.90
1994;DHT22;998;49.906;10.908;2022-12-18T00:53:16;-6.80;99.90
1994;DHT22;998;49.906;10.908;2022-12-18T00:55:43;-6.80;99.90
1994;DHT22;998;49.906;10.908;2022-12-18T00:58:14;-6.80;99.90
1994;DHT22;998;49.906;10.908;2022-12-18T01:00:42;-6.80;99.90
1994;DHT22;998;49.906;10.908;2022-12-18T01:03:10;-6.80;99.90
1994;DHT22;998;49.906;10.908;2022-12-18T01:05:40;-6.90;99.90
1994;DHT22;998;49.906;10.908;2022-12-18T01:08:09;-6.90;99.90
1994;DHT22;998;49.906;10.908;2022-12-18T01:10:36;-6.90;99.90
1994;DHT22;998;49.906;10.908;2022-12-18T01:13:07;-6.90;99.90
1994;DHT22;998;49.906;10.908;2022-12-18T01:15:34;-6.80;99.90
1994;DHT22;998;49.906;10.908;2022-12-18T01:18:02;-6.80;99.90
1994;DHT22;998;49.906;10.908;2022-12-18T01:20:33;-6.70;99.90
1994;DHT22;998;49.906;10.908;2022-12-18T01:23:01;-6.70;99.90
1994;DHT22;998;49.906;10.908;2022-12-18T01:25:30;-6.80;99.90
1994;DHT22;998;49.906;10.908;2022-12-18T01:27:57;-6.70;99.90
1994;DHT22;998;49.906;10.908;2022-12-18T01:30:25;-6.70;99.90
1994;DHT22;998;49.906;10.908;2022-12-18T01:32:52;-6.80;99.90
1994;DHT22;998;49.906;10.908;2022-12-18T01:35:22;-6.80;99.90
1994;DHT22;998;49.906;10.908;2022-12-18T01:37:49;-6.90;99.90
1994;DHT22;998;49.906;10.908;2022-12-18T01:40:20;-7.10;99.90
1994;DHT22;998;49.906;10.908;2022-12-18T01:42:51;-7.40;99.90
1994;DHT22;998;49.906;10.908;2022-12-18T01:45:26;-7.40;99.90
1994;DHT22;998;49.906;10.908;2022-12-18T01:47:58;-7.20;99.90
1994;DHT22;998;49.906;10.908;2022-12-18T01:50:30;-7.30;99.90
1994;DHT22;998;49.906;10.908;2022-12-18T01:53:01;-7.30;99.90
1994;DHT22;998;49.906;10.908;2022-12-18T01:55:32;-7.40;99.90
1994;DHT22;998;49.906;10.908;2022-12-18T01:58:05;-7.40;99.90
1994;DHT22;998;49.906;10.908;2022-12-18T02:00:33;-7.40;99.90
1994;DHT22;998;49.906;10.908;2022-12-18T02:03:01;-7.40;99.90
1994;DHT22;998;49.906;10.908;2022-12-18T02:05:47;-7.60;99.90
1994;DHT22;998;49.906;10.908;2022-12-18T02:08:22;-7.60;99.90
1994;DHT22;998;49.906;10.908;2022-12-18T02:10:59;-7.60;99.90
1994;DHT22;998;49.906;10.908;2022-12-18T02:13:38;-7.80;99.90
1994;DHT22;998;49.906;10.908;2022-12-18T02:16:15;-7.80;99.90
1994;DHT22;998;49.906;10.908;2022-12-18T02:18:50;-7.70;99.90
1994;DHT22;998;49.906;10.908;2022-12-18T02:21:27;-7.70;99.90
1994;DHT22;998;49.906;10.908;2022-12-18T02:26:36;-8.00;99.90
1994;DHT22;998;49.906;10.908;2022-12-18T02:29:08;-8.00;99.90
1994;DHT22;998;49.906;10.908;2022-12-18T02:31:40;-7.90;99.90
1994;DHT22;998;49.906;10.908;2022-12-18T02:34:10;-7.70;99.90
1994;DHT22;998;49.906;10.908;2022-12-18T02:36:41;-7.70;99.90
1994;DHT22;998;49.906;10.908;2022-12-18T02:39:11;-7.90;99.90
1994;DHT22;998;49.906;10.908;2022-12-18T02:41:40;-8.00;99.90
1994;DHT22;998;49.906;10.908;2022-12-18T02:44:10;-8.00;99.90
1994;DHT22;998;49.906;10.908;2022-12-18T02:46:41;-7.90;99.90
1994;DHT22;998;49.906;10.908;2022-12-18T02:49:21;-7.70;99.90
1994;DHT22;998;49.906;10.908;2022-12-18T02:51:53;-7.60;99.90
1994;DHT22;998;49.906;10.908;2022-12-18T02:54:38;-7.50;99.90
1994;DHT22;998;49.906;10.908;2022-12-18T02:57:16;-7.60;99.90
1994;DHT22;998;49.906;10.908;2022-12-18T02:59:56;-7.70;99.90
1994;DHT22;998;49.906;10.908;2022-12-18T03:02:28;-7.70;99.90
1994;DHT22;998;49.906;10.908;2022-12-18T03:05:03;-7.90;99.90
1994;DHT22;998;49.906;10.908;2022-12-18T03:07:36;-7.90;99.90
1994;DHT22;998;49.906;10.908;2022-12-18T03:10:07;-7.90;99.90
1994;DHT22;998;49.906;10.908;2022-12-18T03:12:40;-7.80;99.90
1994;DHT22;998;49.906;10.908;2022-12-18T03:15:13;-7.70;99.90
1994;DHT22;998;49.906;10.908;2022-12-18T03:17:46;-7.60;99.90
1994;DHT22;998;49.906;10.908;2022-12-18T03:20:20;-7.70;99.90
1994;DHT22;998;49.906;10.908;2022-12-18T03:22:52;-7.80;99.90
1994;DHT22;998;49.906;10.908;2022-12-18T03:25:21;-7.70;99.90
1994;DHT22;998;49.906;10.908;2022-12-18T03:27:54;-7.60;99.90
1994;DHT22;998;49.906;10.908;2022-12-18T03:30:23;-7.70;99.90
1994;DHT22;998;49.906;10.908;2022-12-18T03:33:01;-7.60;99.90
1994;DHT22;998;49.906;10.908;2022-12-18T03:35:35;-7.70;99.90
1994;DHT22;998;49.906;10.908;2022-12-18T03:38:03;-7.90;99.90
1994;DHT22;998;49.906;10.908;2022-12-18T03:40:37;-7.90;99.90
1994;DHT22;998;49.906;10.908;2022-12-18T03:43:11;-8.20;99.90
1994;DHT22;998;49.906;10.908;2022-12-18T03:45:43;-8.40;99.90
1994;DHT22;998;49.906;10.908;2022-12-18T03:48:17;-8.70;99.90
1994;DHT22;998;49.906;10.908;2022-12-18T03:50:52;-8.90;99.90
1994;DHT22;998;49.906;10.908;2022-12-18T03:53:27;-8.90;99.90
1994;DHT22;998;49.906;10.908;2022-12-18T03:55:56;-9.00;99.90
1994;DHT22;998;49.906;10.908;2022-12-18T03:58:27;-8.90;99.90
1994;DHT22;998;49.906;10.908;2022-12-18T04:00:57;-8.70;99.90
1994;DHT22;998;49.906;10.908;2022-12-18T04:03:29;-8.60;99.90
1994;DHT22;998;49.906;10.908;2022-12-18T04:05:58;-8.70;99.90
1994;DHT22;998;49.906;10.908;2022-12-18T04:08:26;-9.10;99.90
1994;DHT22;998;49.906;10.908;2022-12-18T04:10:54;-9.00;99.90
1994;DHT22;998;49.906;10.908;2022-12-18T04:13:27;-8.70;99.90
1994;DHT22;998;49.906;10.908;2022-12-18T04:15:55;-9.00;99.90
1994;DHT22;998;49.906;10.908;2022-12-18T04:18:22;-9.00;99.90
1994;DHT22;998;49.906;10.908;2022-12-18T04:20:50;-9.30;99.90
1994;DHT22;998;49.906;10.908;2022-12-18T04:23:18;-9.40;99.90
1994;DHT22;998;49.906;10.908;2022-12-18T04:25:47;-9.30;99.90
1994;DHT22;998;49.906;10.908;2022-12-18T04:28:18;-9.20;99.90
1994;DHT22;998;49.906;10.908;2022-12-18T04:30:48;-9.10;99.90
1994;DHT22;998;49.906;10.908;2022-12-18T04:33:16;-9.10;99.90
1994;DHT22;998;49.906;10.908;2022-12-18T04:35:43;-9.00;99.90
1994;DHT22;998;49.906;10.908;2022-12-18T04:38:11;-9.00;99.90
1994;DHT22;998;49.906;10.908;2022-12-18T04:40:38;-8.80;99.90
1994;DHT22;998;49.906;10.908;2022-12-18T04:43:06;-8.60;99.90
1994;DHT22;998;49.906;10.908;2022-12-18T04:45:33;-8.70;99.90
1994;DHT22;998;49.906;10.908;2022-12-18T04:48:03;-8.90;99.90
1994;DHT22;998;49.906;10.908;2022-12-18T04:50:30;-8.90;99.90
1994;DHT22;998;49.906;10.908;2022-12-18T04:52:58;-8.90;99.90
1994;DHT22;998;49.906;10.908;2022-12-18T04:55:26;-9.00;99.90
1994;DHT22;998;49.906;10.908;2022-12-18T04:57:53;-9.10;99.90
1994;DHT22;998;49.906;10.908;2022-12-18T05:00:21;-8.90;99.90
1994;DHT22;998;49.906;10.908;2022-12-18T05:02:49;-8.70;99.90
1994;DHT22;998;49.906;10.908;2022-12-18T05:05:18;-9.00;99.90
1994;DHT22;998;49.906;10.908;2022-12-18T05:07:45;-9.00;99.90
1994;DHT22;998;49.906;10.908;2022-12-18T05:10:12;-8.90;99.90
1994;DHT22;998;49.906;10.908;2022-12-18T05:12:40;-8.70;99.90
1994;DHT22;998;49.906;10.908;2022-12-18T05:15:21;-8.70;99.90
1994;DHT22;998;49.906;10.908;2022-12-18T05:17:48;-8.80;99.90
1994;DHT22;998;49.906;10.908;2022-12-18T05:20:17;-9.00;99.90
1994;DHT22;998;49.906;10.908;2022-12-18T05:22:45;-8.80;99.90
1994;DHT22;998;49.906;10.908;2022-12-18T05:25:13;-8.80;99.90
1994;DHT22;998;49.906;10.908;2022-12-18T05:27:40;-8.60;99.90
1994;DHT22;998;49.906;10.908;2022-12-18T05:30:09;-8.40;99.90
1994;DHT22;998;49.906;10.908;2022-12-18T05:32:36;-8.40;99.90
1994;DHT22;998;49.906;10.908;2022-12-18T05:35:05;-8.40;99.90
1994;DHT22;998;49.906;10.908;2022-12-18T05:37:35;-8.40;99.90
1994;DHT22;998;49.906;10.908;2022-12-18T05:40:03;-8.30;99.90
1994;DHT22;998;49.906;10.908;2022-12-18T05:42:31;-8.50;99.90
1994;DHT22;998;49.906;10.908;2022-12-18T05:44:58;-8.40;99.90
1994;DHT22;998;49.906;10.908;2022-12-18T05:47:26;-8.40;99.90
1994;DHT22;998;49.906;10.908;2022-12-18T05:49:55;-8.40;99.90
1994;DHT22;998;49.906;10.908;2022-12-18T05:52:23;-8.30;99.90
1994;DHT22;998;49.906;10.908;2022-12-18T05:54:51;-8.30;99.90
1994;DHT22;998;49.906;10.908;2022-12-18T05:57:19;-8.30;99.90
1994;DHT22;998;49.906;10.908;2022-12-18T05:59:46;-8.30;99.90
1994;DHT22;998;49.906;10.908;2022-12-18T06:02:14;-8.20;99.90
1994;DHT22;998;49.906;10.908;2022-12-18T06:04:41;-8.30;99.90
1994;DHT22;998;49.906;10.908;2022-12-18T06:07:08;-8.20;99.90
1994;DHT22;998;49.906;10.908;2022-12-18T06:09:36;-8.30;99.90
1994;DHT22;998;49.906;10.908;2022-12-18T06:12:05;-8.30;99.90
1994;DHT22;998;49.906;10.908;2022-12-18T06:14:33;-8.40;99.90
1994;DHT22;998;49.906;10.908;2022-12-18T06:17:00;-8.40;99.90
1994;DHT22;998;49.906;10.908;2022-12-18T06:19:27;-8.30;99.90
1994;DHT22;998;49.906;10.908;2022-12-18T06:21:55;-8.40;99.90
1994;DHT22;998;49.906;10.908;2022-12-18T06:24:24;-8.40;99.90
1994;DHT22;998;49.906;10.908;2022-12-18T06:26:52;-8.40;99.90
1994;DHT22;998;49.906;10.908;2022-12-18T06:29:21;-8.40;99.90
1994;DHT22;998;49.906;10.908;2022-12-18T06:31:48;-8.40;99.90
1994;DHT22;998;49.906;10.908;2022-12-18T06:34:16;-8.40;99.90
1994;DHT22;998;49.906;10.908;2022-12-18T06:36:43;-8.40;99.90
1994;DHT22;998;49.906;10.908;2022-12-18T06:39:10;-8.40;99.90
1994;DHT22;998;49.906;10.908;2022-12-18T06:41:38;-8.40;99.90
1994;DHT22;998;49.906;10.908;2022-12-18T06:44:05;-8.40;99.90
1994;DHT22;998;49.906;10.908;2022-12-18T06:46:34;-8.40;99.90
1994;DHT22;998;49.906;10.908;2022-12-18T06:49:01;-8.50;99.90
1994;DHT22;998;49.906;10.908;2022-12-18T06:51:29;-8.50;99.90
1994;DHT22;998;49.906;10.908;2022-12-18T06:53:59;-8.40;99.90
1994;DHT22;998;49.906;10.908;2022-12-18T06:56:26;-8.40;99.90
1994;DHT22;998;49.906;10.908;2022-12-18T06:58:53;-8.50;99.90
1994;DHT22;998;49.906;10.908;2022-12-18T07:01:24;-8.50;99.90
1994;DHT22;998;49.906;10.908;2022-12-18T07:03:54;-8.70;99.90
1994;DHT22;998;49.906;10.908;2022-12-18T07:06:24;-8.70;99.90
1994;DHT22;998;49.906;10.908;2022-12-18T07:08:52;-8.80;99.90
1994;DHT22;998;49.906;10.908;2022-12-18T07:11:21;-8.70;99.90
1994;DHT22;998;49.906;10.908;2022-12-18T07:13:49;-8.70;99.90
1994;DHT22;998;49.906;10.908;2022-12-18T07:16:18;-8.60;99.90
1994;DHT22;998;49.906;10.908;2022-12-18T07:18:46;-8.60;99.90
1994;DHT22;998;49.906;10.908;2022-12-18T07:21:17;-8.50;99.90
1994;DHT22;998;49.906;10.908;2022-12-18T07:23:45;-8.50;99.90
1994;DHT22;998;49.906;10.908;2022-12-18T07:26:15;-8.50;99.90
1994;DHT22;998;49.906;10.908;2022-12-18T07:28:43;-8.50;99.90
1994;DHT22;998;49.906;10.908;2022-12-18T07:31:12;-8.50;99.90
1994;DHT22;998;49.906;10.908;2022-12-18T07:33:39;-8.50;99.90
1994;DHT22;998;49.906;10.908;2022-12-18T07:36:08;-8.60;99.90
1994;DHT22;998;49.906;10.908;2022-12-18T07:38:38;-8.50;99.90
1994;DHT22;998;49.906;10.908;2022-12-18T07:41:07;-8.60;99.90
1994;DHT22;998;49.906;10.908;2022-12-18T07:43:35;-8.60;99.90
1994;DHT22;998;49.906;10.908;2022-12-18T07:46:03;-8.60;99.90
1994;DHT22;998;49.906;10.908;2022-12-18T07:48:31;-8.60;99.90
1994;DHT22;998;49.906;10.908;2022-12-18T07:51:00;-8.60;99.90
1994;DHT22;998;49.906;10.908;2022-12-18T07:53:28;-8.60;99.90
1994;DHT22;998;49.906;10.908;2022-12-18T07:55:58;-8.60;99.90
1994;DHT22;998;49.906;10.908;2022-12-18T07:58:25;-8.60;99.90
1994;DHT22;998;49.906;10.908;2022-12-18T08:00:53;-8.60;99.90
1994;DHT22;998;49.906;10.908;2022-12-18T08:03:20;-8.50;99.90
1994;DHT22;998;49.906;10.908;2022-12-18T08:05:48;-8.60;99.90
1994;DHT22;998;49.906;10.908;2022-12-18T08:08:18;-8.60;99.90
1994;DHT22;998;49.906;10.908;2022-12-18T08:10:46;-8.60;99.90
1994;DHT22;998;49.906;10.908;2022-12-18T08:13:15;-8.60;99.90
1994;DHT22;998;49.906;10.908;2022-12-18T08:15:42;-8.60;99.90
1994;DHT22;998;49.906;10.908;2022-12-18T08:18:09;-8.60;99.90
1994;DHT22;998;49.906;10.908;2022-12-18T08:20:37;-8.70;99.90
1994;DHT22;998;49.906;10.908;2022-12-18T08:23:08;-8.70;99.90
1994;DHT22;998;49.906;10.908;2022-12-18T08:25:35;-8.90;99.90
1994;DHT22;998;49.906;10.908;2022-12-18T08:28:03;-8.80;99.90
1994;DHT22;998;49.906;10.908;2022-12-18T08:30:32;-8.90;99.90
1994;DHT22;998;49.906;10.908;2022-12-18T08:32:59;-8.90;99.90
1994;DHT22;998;49.906;10.908;2022-12-18T08:35:27;-8.80;99.90
1994;DHT22;998;49.906;10.908;2022-12-18T08:37:54;-8.70;99.90
1994;DHT22;998;49.906;10.908;2022-12-18T08:40:22;-8.60;99.90
1994;DHT22;998;49.906;10.908;2022-12-18T08:42:49;-8.50;99.90
1994;DHT22;998;49.906;10.908;2022-12-18T08:45:35;-8.60;99.90
1994;DHT22;998;49.906;10.908;2022-12-18T08:48:03;-8.50;99.90
1994;DHT22;998;49.906;10.908;2022-12-18T08:50:31;-8.50;99.90
1994;DHT22;998;49.906;10.908;2022-12-18T08:52:58;-8.40;99.90
1994;DHT22;998;49.906;10.908;2022-12-18T08:55:25;-8.40;99.90
1994;DHT22;998;49.906;10.908;2022-12-18T08:57:53;-8.40;99.90
1994;DHT22;998;49.906;10.908;2022-12-18T09:00:20;-8.30;99.90
1994;DHT22;998;49.906;10.908;2022-12-18T09:02:49;-8.40;99.90
1994;DHT22;998;49.906;10.908;2022-12-18T09:05:17;-8.30;99.90
1994;DHT22;998;49.906;10.908;2022-12-18T09:07:44;-8.20;99.90
1994;DHT22;998;49.906;10.908;2022-12-18T09:10:11;-8.20;99.90
1994;DHT22;998;49.906;10.908;2022-12-18T09:12:39;-8.20;99.90
1994;DHT22;998;49.906;10.908;2022-12-18T09:15:07;-8.20;99.90
1994;DHT22;998;49.906;10.908;2022-12-18T09:17:34;-8.10;99.90
1994;DHT22;998;49.906;10.908;2022-12-18T09:20:03;-8.10;99.90
1994;DHT22;998;49.906;10.908;2022-12-18T09:22:31;-8.00;99.90
1994;DHT22;998;49.906;10.908;2022-12-18T09:24:58;-7.90;99.90
1994;DHT22;998;49.906;10.908;2022-12-18T09:27:26;-7.90;99.90
1994;DHT22;998;49.906;10.908;2022-12-18T09:29:54;-7.90;99.90
1994;DHT22;998;49.906;10.908;2022-12-18T09:32:21;-7.90;99.90
1994;DHT22;998;49.906;10.908;2022-12-18T09:34:48;-7.70;99.90
1994;DHT22;998;49.906;10.908;2022-12-18T09:37:17;-7.50;99.90
1994;DHT22;998;49.906;10.908;2022-12-18T09:39:45;-7.60;99.90
1994;DHT22;998;49.906;10.908;2022-12-18T09:42:17;-7.50;99.90
1994;DHT22;998;49.906;10.908;2022-12-18T09:44:49;-7.60;99.90
1994;DHT22;998;49.906;10.908;2022-12-18T09:47:19;-7.70;99.90
1994;DHT22;998;49.906;10.908;2022-12-18T09:49:52;-7.50;99.90
1994;DHT22;998;49.906;10.908;2022-12-18T09:52:24;-7.40;99.90
1994;DHT22;998;49.906;10.908;2022-12-18T09:54:55;-7.40;99.90
1994;DHT22;998;49.906;10.908;2022-12-18T09:57:24;-7.40;99.90
1994;DHT22;998;49.906;10.908;2022-12-18T09:59:55;-7.30;99.90
1994;DHT22;998;49.906;10.908;2022-12-18T10:02:25;-7.20;99.90
1994;DHT22;998;49.906;10.908;2022-12-18T10:05:05;-7.00;99.90
1994;DHT22;998;49.906;10.908;2022-12-18T10:07:49;-6.90;99.90
1994;DHT22;998;49.906;10.908;2022-12-18T10:10:26;-6.90;99.90
1994;DHT22;998;49.906;10.908;2022-12-18T10:13:02;-6.80;99.90
1994;DHT22;998;49.906;10.908;2022-12-18T10:15:36;-6.60;99.90
1994;DHT22;998;49.906;10.908;2022-12-18T10:18:21;-6.50;99.90
1994;DHT22;998;49.906;10.908;2022-12-18T10:20:52;-6.30;99.90
1994;DHT22;998;49.906;10.908;2022-12-18T10:23:25;-6.30;99.90
1994;DHT22;998;49.906;10.908;2022-12-18T10:25:58;-6.20;99.90
1994;DHT22;998;49.906;10.908;2022-12-18T10:28:27;-6.00;99.90
1994;DHT22;998;49.906;10.908;2022-12-18T10:30:56;-5.90;99.90
1994;DHT22;998;49.906;10.908;2022-12-18T10:33:27;-5.70;99.90
1994;DHT22;998;49.906;10.908;2022-12-18T10:35:55;-5.60;99.90
1994;DHT22;998;49.906;10.908;2022-12-18T10:38:27;-5.50;99.90
1994;DHT22;998;49.906;10.908;2022-12-18T10:40:56;-5.20;99.90
1994;DHT22;998;49.906;10.908;2022-12-18T10:43:26;-4.80;99.90
1994;DHT22;998;49.906;10.908;2022-12-18T10:46:14;-4.70;99.90
1994;DHT22;998;49.906;10.908;2022-12-18T10:48:53;-4.50;99.90
1994;DHT22;998;49.906;10.908;2022-12-18T10:51:24;-4.10;99.90
1994;DHT22;998;49.906;10.908;2022-12-18T10:53:56;-3.80;99.90
1994;DHT22;998;49.906;10.908;2022-12-18T10:58:59;-3.80;99.90
1994;DHT22;998;49.906;10.908;2022-12-18T13:56:48;-2.40;99.90
1994;DHT22;998;49.906;10.908;2022-12-18T13:59:19;-2.50;99.90
1994;DHT22;998;49.906;10.908;2022-12-18T14:01:51;-2.50;99.90
1994;DHT22;998;49.906;10.908;2022-12-18T14:04:22;-2.60;99.90
1994;DHT22;998;49.906;10.908;2022-12-18T14:06:52;-2.70;99.90
1994;DHT22;998;49.906;10.908;2022-12-18T14:09:25;-2.60;99.90
1994;DHT22;998;49.906;10.908;2022-12-18T14:11:54;-2.70;99.90
1994;DHT22;998;49.906;10.908;2022-12-18T14:14:47;-2.80;99.90
1994;DHT22;998;49.906;10.908;2022-12-18T14:17:16;-2.90;99.90
1994;DHT22;998;49.906;10.908;2022-12-18T14:19:44;-2.90;99.90
1994;DHT22;998;49.906;10.908;2022-12-18T14:22:16;-2.90;99.90
1994;DHT22;998;49.906;10.908;2022-12-18T14:24:44;-2.90;99.90
1994;DHT22;998;49.906;10.908;2022-12-18T14:27:22;-2.90;99.90
1994;DHT22;998;49.906;10.908;2022-12-18T14:29:51;-2.90;99.90
1994;DHT22;998;49.906;10.908;2022-12-18T14:32:20;-2.90;99.90
1994;DHT22;998;49.906;10.908;2022-12-18T14:34:50;-2.90;99.90
1994;DHT22;998;49.906;10.908;2022-12-18T14:37:21;-3.00;99.90
1994;DHT22;998;49.906;10.908;2022-12-18T14:39:56;-3.00;99.90
1994;DHT22;998;49.906;10.908;2022-12-18T14:42:24;-3.10;99.90
1994;DHT22;998;49.906;10.908;2022-12-18T14:47:56;-3.10;99.90
1994;DHT22;998;49.906;10.908;2022-12-18T14:50:23;-3.10;99.90
1994;DHT22;998;49.906;10.908;2022-12-18T14:52:51;-3.10;99.90
1994;DHT22;998;49.906;10.908;2022-12-18T14:55:20;-3.10;99.90
1994;DHT22;998;49.906;10.908;2022-12-18T14:57:50;-3.10;99.90
1994;DHT22;998;49.906;10.908;2022-12-18T15:00:20;-3.30;99.90
1994;DHT22;998;49.906;10.908;2022-12-18T15:02:51;-3.40;99.90
1994;DHT22;998;49.906;10.908;2022-12-18T15:05:25;-3.40;99.90
1994;DHT22;998;49.906;10.908;2022-12-18T15:07:54;-3.40;99.90
1994;DHT22;998;49.906;10.908;2022-12-18T15:10:24;-3.30;99.90
1994;DHT22;998;49.906;10.908;2022-12-18T15:13:08;-3.30;99.90
1994;DHT22;998;49.906;10.908;2022-12-18T15:15:45;-3.30;99.90
1994;DHT22;998;49.906;10.908;2022-12-18T15:18:14;-3.30;99.90
1994;DHT22;998;49.906;10.908;2022-12-18T15:20:46;-3.30;99.90
1994;DHT22;998;49.906;10.908;2022-12-18T15:23:17;-3.30;99.90
1994;DHT22;998;49.906;10.908;2022-12-18T15:25:46;-3.30;99.90
1994;DHT22;998;49.906;10.908;2022-12-18T15:28:20;-3.40;99.90
1994;DHT22;998;49.906;10.908;2022-12-18T15:30:59;-3.40;99.90
1994;DHT22;998;49.906;10.908;2022-12-18T15:33:31;-3.40;99.90
1994;DHT22;998;49.906;10.908;2022-12-18T15:36:01;-3.40;99.90
1994;DHT22;998;49.906;10.908;2022-12-18T15:38:29;-3.40;99.90
1994;DHT22;998;49.906;10.908;2022-12-18T15:40:57;-3.50;99.90
1994;DHT22;998;49.906;10.908;2022-12-18T15:43:25;-3.60;99.90
1994;DHT22;998;49.906;10.908;2022-12-18T15:46:02;-3.60;99.90
1994;DHT22;998;49.906;10.908;2022-12-18T15:48:29;-3.50;99.90
1994;DHT22;998;49.906;10.908;2022-12-18T15:51:01;-3.50;99.90
1994;DHT22;998;49.906;10.908;2022-12-18T15:53:30;-3.50;99.90
1994;DHT22;998;49.906;10.908;2022-12-18T15:55:59;-3.60;99.90
1994;DHT22;998;49.906;10.908;2022-12-18T15:58:44;-3.60;99.90
1994;DHT22;998;49.906;10.908;2022-12-18T16:01:11;-3.60;99.90
1994;DHT22;998;49.906;10.908;2022-12-18T16:03:39;-3.60;99.90
1994;DHT22;998;49.906;10.908;2022-12-18T16:06:09;-3.60;99.90
1994;DHT22;998;49.906;10.908;2022-12-18T16:08:37;-3.60;99.90
1994;DHT22;998;49.906;10.908;2022-12-18T16:11:05;-3.60;99.90
1994;DHT22;998;49.906;10.908;2022-12-18T16:13:33;-3.60;99.90
1994;DHT22;998;49.906;10.908;2022-12-18T16:16:00;-3.60;99.90
1994;DHT22;998;49.906;10.908;2022-12-18T16:18:28;-3.60;99.90
1994;DHT22;998;49.906;10.908;2022-12-18T16:20:55;-3.60;99.90
1994;DHT22;998;49.906;10.908;2022-12-18T16:23:24;-3.60;99.90
1994;DHT22;998;49.906;10.908;2022-12-18T16:25:53;-3.60;99.90
1994;DHT22;998;49.906;10.908;2022-12-18T16:28:20;-3.60;99.90
1994;DHT22;998;49.906;10.908;2022-12-18T16:30:47;-3.60;99.90
1994;DHT22;998;49.906;10.908;2022-12-18T16:33:15;-3.60;99.90
1994;DHT22;998;49.906;10.908;2022-12-18T16:35:42;-3.60;99.90
1994;DHT22;998;49.906;10.908;2022-12-18T16:38:10;-3.60;99.90
1994;DHT22;998;49.906;10.908;2022-12-18T16:40:39;-3.60;99.90
1994;DHT22;998;49.906;10.908;2022-12-18T16:43:28;-3.60;99.90
1994;DHT22;998;49.906;10.908;2022-12-18T16:45:55;-3.60;99.90
1994;DHT22;998;49.906;10.908;2022-12-18T16:48:25;-3.60;99.90
1994;DHT22;998;49.906;10.908;2022-12-18T16:51:00;-3.60;99.90
1994;DHT22;998;49.906;10.908;2022-12-18T16:53:28;-3.60;99.90
1994;DHT22;998;49.906;10.908;2022-12-18T16:55:57;-3.60;99.90
1994;DHT22;998;49.906;10.908;2022-12-18T16:58:25;-3.60;99.90
1994;DHT22;998;49.906;10.908;2022-12-18T17:00:52;-3.60;99.90
1994;DHT22;998;49.906;10.908;2022-12-18T17:03:19;-3.50;99.90
1994;DHT22;998;49.906;10.908;2022-12-18T17:05:47;-3.50;99.90
1994;DHT22;998;49.906;10.908;2022-12-18T17:08:14;-3.50;99.90
1994;DHT22;998;49.906;10.908;2022-12-18T17:10:42;-3.50;99.90
1994;DHT22;998;49.906;10.908;2022-12-18T17:13:11;-3.50;99.90
1994;DHT22;998;49.906;10.908;2022-12-18T17:15:38;-3.60;99.90
1994;DHT22;998;49.906;10.908;2022-12-18T17:18:06;-3.60;99.90
1994;DHT22;998;49.906;10.908;2022-12-18T17:20:33;-3.60;99.90
1994;DHT22;998;49.906;10.908;2022-12-18T17:23:01;-3.60;99.90
1994;DHT22;998;49.906;10.908;2022-12-18T17:25:28;-3.60;99.90
1994;DHT22;998;49.906;10.908;2022-12-18T17:27:55;-3.60;99.90
1994;DHT22;998;49.906;10.908;2022-12-18T17:30:24;-3.60;99.90
1994;DHT22;998;49.906;10.908;2022-12-18T17:32:51;-3.60;99.90
1994;DHT22;998;49.906;10.908;2022-12-18T17:35:19;-3.60;99.90
1994;DHT22;998;49.906;10.908;2022-12-18T17:37:46;-3.60;99.90
1994;DHT22;998;49.906;10.908;2022-12-18T17:40:13;-3.60;99.90
1994;DHT22;998;49.906;10.908;2022-12-18T17:42:41;-3.60;99.90
1994;DHT22;998;49.906;10.908;2022-12-18T17:45:09;-3.70;99.90
1994;DHT22;998;49.906;10.908;2022-12-18T17:47:38;-3.70;99.90
1994;DHT22;998;49.906;10.908;2022-12-18T17:50:06;-3.60;99.90
1994;DHT22;998;49.906;10.908;2022-12-18T17:52:34;-3.60;99.90
1994;DHT22;998;49.906;10.908;2022-12-18T17:55:01;-3.60;99.90
1994;DHT22;998;49.906;10.908;2022-12-18T17:57:28;-3.60;99.90
1994;DHT22;998;49.906;10.908;2022-12-18T17:59:56;-3.60;99.90
1994;DHT22;998;49.906;10.908;2022-12-18T18:02:23;-3.60;99.90
1994;DHT22;998;49.906;10.908;2022-12-18T18:04:52;-3.60;99.90
1994;DHT22;998;49.906;10.908;2022-12-18T18:07:19;-3.60;99.90
1994;DHT22;998;49.906;10.908;2022-12-18T18:09:47;-3.60;99.90
1994;DHT22;998;49.906;10.908;2022-12-18T18:12:14;-3.50;99.90
1994;DHT22;998;49.906;10.908;2022-12-18T18:14:59;-3.50;99.90
1994;DHT22;998;49.906;10.908;2022-12-18T18:17:26;-3.50;99.90
1994;DHT22;998;49.906;10.908;2022-12-18T18:19:55;-3.50;99.90
1994;DHT22;998;49.906;10.908;2022-12-18T18:22:22;-3.50;99.90
1994;DHT22;998;49.906;10.908;2022-12-18T18:24:50;-3.50;99.90
1994;DHT22;998;49.906;10.908;2022-12-18T18:27:18;-3.50;99.90
1994;DHT22;998;49.906;10.908;2022-12-18T18:29:45;-3.50;99.90
1994;DHT22;998;49.906;10.908;2022-12-18T18:32:14;-3.50;99.90
1994;DHT22;998;49.906;10.908;2022-12-18T18:34:41;-3.50;99.90
1994;DHT22;998;49.906;10.908;2022-12-18T18:37:10;-3.50;99.90
1994;DHT22;998;49.906;10.908;2022-12-18T18:39:37;-3.40;99.90
1994;DHT22;998;49.906;10.908;2022-12-18T18:42:05;-3.50;99.90
1994;DHT22;998;49.906;10.908;2022-12-18T18:44:32;-3.40;99.90
1994;DHT22;998;49.906;10.908;2022-12-18T18:47:00;-3.40;99.90
1994;DHT22;998;49.906;10.908;2022-12-18T18:49:27;-3.40;99.90
1994;DHT22;998;49.906;10.908;2022-12-18T18:51:56;-3.40;99.90
1994;DHT22;998;49.906;10.908;2022-12-18T18:54:25;-3.40;99.90
1994;DHT22;998;49.906;10.908;2022-12-18T18:56:53;-3.40;99.90
1994;DHT22;998;49.906;10.908;2022-12-18T18:59:20;-3.40;99.90
1994;DHT22;998;49.906;10.908;2022-12-18T19:01:47;-3.40;99.90
1994;DHT22;998;49.906;10.908;2022-12-18T19:04:17;-3.40;99.90
1994;DHT22;998;49.906;10.908;2022-12-18T19:06:44;-3.40;99.90
1994;DHT22;998;49.906;10.908;2022-12-18T19:09:13;-3.40;99.90
1994;DHT22;998;49.906;10.908;2022-12-18T19:11:42;-3.40;99.90
1994;DHT22;998;49.906;10.908;2022-12-18T19:14:27;-3.40;99.90
1994;DHT22;998;49.906;10.908;2022-12-18T19:16:54;-3.40;99.90
1994;DHT22;998;49.906;10.908;2022-12-18T19:19:22;-3.40;99.90
1994;DHT22;998;49.906;10.908;2022-12-18T19:21:50;-3.40;99.90